sensor_id;sensor_type;location;lat;lon;timestamp;P1;durP1;ratioP1;P2;durP2;ratioP2
42194;SDS011;27863;49.440;11.102;2023-11-18T00:00:58;5.00;;;4.13;;
42194;SDS011;27863;49.440;11.102;2023-11-18T00:03:58;4.27;;;3.83;;
42194;SDS011;27863;49.440;11.102;2023-11-18T00:06:59;5.77;;;5.27;;
42194;SDS011;27863;49.440;11.102;2023-11-18T00:10:02;5.60;;;4.17;;
42194;SDS011;27863;49.440;11.102;2023-11-18T00:13:05;5.83;;;5.33;;
42194;SDS011;27863;49.440;11.102;2023-11-18T00:16:06;11.97;;;5.53;;
42194;SDS011;27863;49.440;11.102;2023-11-18T00:19:12;5.50;;;5.00;;
42194;SDS011;27863;49.440;11.102;2023-11-18T00:22:12;6.33;;;5.50;;
42194;SDS011;27863;49.440;11.102;2023-11-18T00:25:13;7.10;;;5.00;;
42194;SDS011;27863;49.440;11.102;2023-11-18T00:28:14;5.07;;;4.57;;
42194;SDS011;27863;49.440;11.102;2023-11-18T00:31:14;5.83;;;5.23;;
42194;SDS011;27863;49.440;11.102;2023-11-18T00:34:15;4.23;;;3.83;;
42194;SDS011;27863;49.440;11.102;2023-11-18T00:37:15;4.60;;;4.20;;
42194;SDS011;27863;49.440;11.102;2023-11-18T00:40:16;4.33;;;4.00;;
42194;SDS011;27863;49.440;11.102;2023-11-18T00:43:19;5.33;;;4.80;;
42194;SDS011;27863;49.440;11.102;2023-11-18T00:46:20;5.73;;;5.20;;
42194;SDS011;27863;49.440;11.102;2023-11-18T00:49:22;4.77;;;4.37;;
42194;SDS011;27863;49.440;11.102;2023-11-18T00:52:22;5.90;;;5.13;;
42194;SDS011;27863;49.440;11.102;2023-11-18T00:55:23;6.37;;;5.77;;
42194;SDS011;27863;49.440;11.102;2023-11-18T00:58:23;8.10;;;6.07;;
42194;SDS011;27863;49.440;11.102;2023-11-18T01:01:24;6.10;;;5.60;;
42194;SDS011;27863;49.440;11.102;2023-11-18T01:04:24;11.30;;;6.27;;
42194;SDS011;27863;49.440;11.102;2023-11-18T01:07:25;6.17;;;5.57;;
42194;SDS011;27863;49.440;11.102;2023-11-18T01:10:26;7.13;;;6.53;;
42194;SDS011;27863;49.440;11.102;2023-11-18T01:13:28;7.87;;;6.47;;
42194;SDS011;27863;49.440;11.102;2023-11-18T01:16:29;7.47;;;5.83;;
42194;SDS011;27863;49.440;11.102;2023-11-18T01:19:31;12.07;;;6.33;;
42194;SDS011;27863;49.440;11.102;2023-11-18T01:22:34;7.60;;;6.90;;
42194;SDS011;27863;49.440;11.102;2023-11-18T01:25:34;7.63;;;6.83;;
42194;SDS011;27863;49.440;11.102;2023-11-18T01:28:35;8.60;;;7.80;;
42194;SDS011;27863;49.440;11.102;2023-11-18T01:31:37;7.53;;;6.87;;
42194;SDS011;27863;49.440;11.102;2023-11-18T01:34:41;6.77;;;6.23;;
42194;SDS011;27863;49.440;11.102;2023-11-18T01:37:43;8.63;;;7.43;;
42194;SDS011;27863;49.440;11.102;2023-11-18T01:40:44;7.03;;;6.30;;
42194;SDS011;27863;49.440;11.102;2023-11-18T01:43:45;7.90;;;7.10;;
42194;SDS011;27863;49.440;11.102;2023-11-18T01:46:47;8.63;;;6.80;;
42194;SDS011;27863;49.440;11.102;2023-11-18T01:49:48;7.90;;;7.13;;
42194;SDS011;27863;49.440;11.102;2023-11-18T01:52:49;6.70;;;6.00;;
42194;SDS011;27863;49.440;11.102;2023-11-18T01:55:49;7.80;;;7.10;;
42194;SDS011;27863;49.440;11.102;2023-11-18T01:58:50;8.87;;;7.10;;
42194;SDS011;27863;49.440;11.102;2023-11-18T02:01:52;7.90;;;7.10;;
42194;SDS011;27863;49.440;11.102;2023-11-18T02:04:54;6.97;;;6.27;;
42194;SDS011;27863;49.440;11.102;2023-11-18T02:07:55;7.10;;;6.37;;
42194;SDS011;27863;49.440;11.102;2023-11-18T02:10:57;9.17;;;7.47;;
42194;SDS011;27863;49.440;11.102;2023-11-18T02:14:02;7.30;;;6.70;;
42194;SDS011;27863;49.440;11.102;2023-11-18T02:17:12;7.70;;;7.00;;
42194;SDS011;27863;49.440;11.102;2023-11-18T02:20:14;7.63;;;6.93;;
42194;SDS011;27863;49.440;11.102;2023-11-18T02:23:16;7.53;;;6.83;;
42194;SDS011;27863;49.440;11.102;2023-11-18T02:26:20;8.47;;;7.67;;
42194;SDS011;27863;49.440;11.102;2023-11-18T02:29:24;8.60;;;7.37;;
42194;SDS011;27863;49.440;11.102;2023-11-18T02:32:45;8.70;;;7.73;;
42194;SDS011;27863;49.440;11.102;2023-11-18T02:36:20;8.17;;;7.37;;
42194;SDS011;27863;49.440;11.102;2023-11-18T02:39:33;7.10;;;6.50;;
42194;SDS011;27863;49.440;11.102;2023-11-18T02:42:38;10.30;;;7.23;;
42194;SDS011;27863;49.440;11.102;2023-11-18T02:45:39;6.63;;;6.13;;
42194;SDS011;27863;49.440;11.102;2023-11-18T02:48:41;7.67;;;6.97;;
42194;SDS011;27863;49.440;11.102;2023-11-18T02:51:41;8.40;;;7.07;;
42194;SDS011;27863;49.440;11.102;2023-11-18T02:54:45;7.80;;;7.03;;
42194;SDS011;27863;49.440;11.102;2023-11-18T02:57:46;7.20;;;6.50;;
42194;SDS011;27863;49.440;11.102;2023-11-18T03:00:47;9.93;;;6.33;;
42194;SDS011;27863;49.440;11.102;2023-11-18T03:03:48;6.10;;;5.60;;
42194;SDS011;27863;49.440;11.102;2023-11-18T03:06:48;7.10;;;6.50;;
42194;SDS011;27863;49.440;11.102;2023-11-18T03:09:49;7.90;;;6.40;;
42194;SDS011;27863;49.440;11.102;2023-11-18T03:12:50;7.37;;;6.73;;
42194;SDS011;27863;49.440;11.102;2023-11-18T03:15:52;6.97;;;6.43;;
42194;SDS011;27863;49.440;11.102;2023-11-18T03:18:53;7.43;;;6.70;;
42194;SDS011;27863;49.440;11.102;2023-11-18T03:21:55;7.47;;;6.87;;
42194;SDS011;27863;49.440;11.102;2023-11-18T03:24:56;6.70;;;6.10;;
42194;SDS011;27863;49.440;11.102;2023-11-18T03:27:56;8.17;;;6.97;;
42194;SDS011;27863;49.440;11.102;2023-11-18T03:30:57;7.43;;;6.87;;
42194;SDS011;27863;49.440;11.102;2023-11-18T03:33:57;6.93;;;6.30;;
42194;SDS011;27863;49.440;11.102;2023-11-18T03:36:57;7.40;;;6.70;;
42194;SDS011;27863;49.440;11.102;2023-11-18T03:39:58;7.30;;;6.70;;
42194;SDS011;27863;49.440;11.102;2023-11-18T03:42:58;7.10;;;6.50;;
42194;SDS011;27863;49.440;11.102;2023-11-18T03:45:59;7.10;;;6.50;;
42194;SDS011;27863;49.440;11.102;2023-11-18T03:49:00;7.50;;;6.80;;
42194;SDS011;27863;49.440;11.102;2023-11-18T03:52:02;6.53;;;5.93;;
42194;SDS011;27863;49.440;11.102;2023-11-18T03:55:03;7.70;;;7.00;;
42194;SDS011;27863;49.440;11.102;2023-11-18T03:58:04;7.40;;;6.77;;
42194;SDS011;27863;49.440;11.102;2023-11-18T04:01:05;7.53;;;6.83;;
42194;SDS011;27863;49.440;11.102;2023-11-18T04:04:06;7.03;;;6.33;;
42194;SDS011;27863;49.440;11.102;2023-11-18T04:07:08;9.03;;;8.17;;
42194;SDS011;27863;49.440;11.102;2023-11-18T04:10:08;8.57;;;6.20;;
42194;SDS011;27863;49.440;11.102;2023-11-18T04:13:10;8.20;;;7.40;;
42194;SDS011;27863;49.440;11.102;2023-11-18T04:16:11;7.20;;;6.60;;
42194;SDS011;27863;49.440;11.102;2023-11-18T04:19:19;7.47;;;6.67;;
42194;SDS011;27863;49.440;11.102;2023-11-18T04:22:19;7.77;;;6.97;;
42194;SDS011;27863;49.440;11.102;2023-11-18T04:25:21;6.80;;;6.20;;
42194;SDS011;27863;49.440;11.102;2023-11-18T04:28:21;6.87;;;6.27;;
42194;SDS011;27863;49.440;11.102;2023-11-18T04:31:22;7.50;;;6.73;;
42194;SDS011;27863;49.440;11.102;2023-11-18T04:34:22;7.20;;;6.60;;
42194;SDS011;27863;49.440;11.102;2023-11-18T04:37:23;7.53;;;6.83;;
42194;SDS011;27863;49.440;11.102;2023-11-18T04:40:23;6.47;;;5.73;;
42194;SDS011;27863;49.440;11.102;2023-11-18T04:43:24;7.57;;;6.87;;
42194;SDS011;27863;49.440;11.102;2023-11-18T04:46:25;6.27;;;5.67;;
42194;SDS011;27863;49.440;11.102;2023-11-18T04:49:25;6.57;;;5.97;;
42194;SDS011;27863;49.440;11.102;2023-11-18T04:52:26;6.17;;;5.60;;
42194;SDS011;27863;49.440;11.102;2023-11-18T04:55:28;5.63;;;5.17;;
42194;SDS011;27863;49.440;11.102;2023-11-18T04:58:29;6.23;;;5.63;;
42194;SDS011;27863;49.440;11.102;2023-11-18T05:01:29;6.70;;;6.00;;
42194;SDS011;27863;49.440;11.102;2023-11-18T05:04:30;5.43;;;4.93;;
42194;SDS011;27863;49.440;11.102;2023-11-18T05:07:31;6.30;;;5.80;;
42194;SDS011;27863;49.440;11.102;2023-11-18T05:10:35;7.23;;;6.50;;
42194;SDS011;27863;49.440;11.102;2023-11-18T05:13:38;5.87;;;5.33;;
42194;SDS011;27863;49.440;11.102;2023-11-18T05:16:40;10.40;;;6.10;;
42194;SDS011;27863;49.440;11.102;2023-11-18T05:19:42;6.33;;;5.73;;
42194;SDS011;27863;49.440;11.102;2023-11-18T05:22:43;5.57;;;5.07;;
42194;SDS011;27863;49.440;11.102;2023-11-18T05:25:44;5.63;;;5.13;;
42194;SDS011;27863;49.440;11.102;2023-11-18T05:28:45;5.60;;;5.20;;
42194;SDS011;27863;49.440;11.102;2023-11-18T05:31:45;6.93;;;4.93;;
42194;SDS011;27863;49.440;11.102;2023-11-18T05:34:46;5.43;;;4.93;;
42194;SDS011;27863;49.440;11.102;2023-11-18T05:37:46;12.13;;;5.50;;
42194;SDS011;27863;49.440;11.102;2023-11-18T05:40:48;6.00;;;5.57;;
42194;SDS011;27863;49.440;11.102;2023-11-18T05:43:56;5.33;;;4.83;;
42194;SDS011;27863;49.440;11.102;2023-11-18T05:46:57;5.53;;;4.87;;
42194;SDS011;27863;49.440;11.102;2023-11-18T05:49:58;6.03;;;5.30;;
42194;SDS011;27863;49.440;11.102;2023-11-18T05:52:58;6.07;;;5.47;;
42194;SDS011;27863;49.440;11.102;2023-11-18T05:55:59;6.47;;;5.87;;
42194;SDS011;27863;49.440;11.102;2023-11-18T05:58:59;5.93;;;5.43;;
42194;SDS011;27863;49.440;11.102;2023-11-18T06:02:02;5.27;;;4.30;;
42194;SDS011;27863;49.440;11.102;2023-11-18T06:05:03;5.47;;;4.97;;
42194;SDS011;27863;49.440;11.102;2023-11-18T06:08:04;5.77;;;5.27;;
42194;SDS011;27863;49.440;11.102;2023-11-18T06:11:04;6.63;;;4.50;;
42194;SDS011;27863;49.440;11.102;2023-11-18T06:14:13;5.80;;;5.20;;
42194;SDS011;27863;49.440;11.102;2023-11-18T06:17:13;8.10;;;5.47;;
42194;SDS011;27863;49.440;11.102;2023-11-18T06:20:13;6.63;;;5.97;;
42194;SDS011;27863;49.440;11.102;2023-11-18T06:23:14;6.40;;;5.80;;
42194;SDS011;27863;49.440;11.102;2023-11-18T06:26:18;6.47;;;5.57;;
42194;SDS011;27863;49.440;11.102;2023-11-18T06:29:19;8.70;;;4.63;;
42194;SDS011;27863;49.440;11.102;2023-11-18T06:32:20;6.13;;;5.63;;
42194;SDS011;27863;49.440;11.102;2023-11-18T06:35:20;8.63;;;5.50;;
42194;SDS011;27863;49.440;11.102;2023-11-18T06:38:21;6.43;;;5.83;;
42194;SDS011;27863;49.440;11.102;2023-11-18T06:41:22;6.30;;;5.33;;
42194;SDS011;27863;49.440;11.102;2023-11-18T06:44:25;6.97;;;5.90;;
42194;SDS011;27863;49.440;11.102;2023-11-18T06:47:26;8.67;;;7.63;;
42194;SDS011;27863;49.440;11.102;2023-11-18T06:50:27;7.80;;;7.10;;
42194;SDS011;27863;49.440;11.102;2023-11-18T06:53:28;6.07;;;5.57;;
42194;SDS011;27863;49.440;11.102;2023-11-18T06:56:30;7.13;;;6.43;;
42194;SDS011;27863;49.440;11.102;2023-11-18T06:59:31;6.63;;;5.97;;
42194;SDS011;27863;49.440;11.102;2023-11-18T07:02:31;11.83;;;7.40;;
42194;SDS011;27863;49.440;11.102;2023-11-18T07:05:32;8.10;;;7.30;;
42194;SDS011;27863;49.440;11.102;2023-11-18T07:08:32;7.07;;;6.40;;
42194;SDS011;27863;49.440;11.102;2023-11-18T07:11:35;6.40;;;5.80;;
42194;SDS011;27863;49.440;11.102;2023-11-18T07:14:35;6.57;;;5.83;;
42194;SDS011;27863;49.440;11.102;2023-11-18T07:17:36;5.97;;;5.43;;
42194;SDS011;27863;49.440;11.102;2023-11-18T07:20:37;7.70;;;6.90;;
42194;SDS011;27863;49.440;11.102;2023-11-18T07:23:37;8.17;;;6.53;;
42194;SDS011;27863;49.440;11.102;2023-11-18T07:26:38;7.30;;;5.87;;
42194;SDS011;27863;49.440;11.102;2023-11-18T07:29:38;7.90;;;7.17;;
42194;SDS011;27863;49.440;11.102;2023-11-18T07:32:39;8.87;;;7.20;;
42194;SDS011;27863;49.440;11.102;2023-11-18T07:35:40;8.33;;;6.50;;
42194;SDS011;27863;49.440;11.102;2023-11-18T07:38:41;11.93;;;7.03;;
42194;SDS011;27863;49.440;11.102;2023-11-18T07:41:42;9.90;;;6.10;;
42194;SDS011;27863;49.440;11.102;2023-11-18T07:44:42;11.37;;;6.97;;
42194;SDS011;27863;49.440;11.102;2023-11-18T07:47:44;7.67;;;6.97;;
42194;SDS011;27863;49.440;11.102;2023-11-18T07:50:46;12.60;;;7.10;;
42194;SDS011;27863;49.440;11.102;2023-11-18T07:53:47;14.53;;;7.27;;
42194;SDS011;27863;49.440;11.102;2023-11-18T07:56:49;12.93;;;6.57;;
42194;SDS011;27863;49.440;11.102;2023-11-18T07:59:52;10.23;;;8.03;;
42194;SDS011;27863;49.440;11.102;2023-11-18T08:02:53;9.07;;;7.47;;
42194;SDS011;27863;49.440;11.102;2023-11-18T08:05:54;10.00;;;7.73;;
42194;SDS011;27863;49.440;11.102;2023-11-18T08:08:55;17.23;;;8.13;;
42194;SDS011;27863;49.440;11.102;2023-11-18T08:11:57;8.40;;;7.33;;
42194;SDS011;27863;49.440;11.102;2023-11-18T08:14:59;8.57;;;6.93;;
42194;SDS011;27863;49.440;11.102;2023-11-18T08:18:00;8.43;;;7.17;;
42194;SDS011;27863;49.440;11.102;2023-11-18T08:21:01;8.77;;;7.97;;
42194;SDS011;27863;49.440;11.102;2023-11-18T08:24:03;8.90;;;8.10;;
42194;SDS011;27863;49.440;11.102;2023-11-18T08:27:08;8.90;;;7.87;;
42194;SDS011;27863;49.440;11.102;2023-11-18T08:30:09;9.27;;;8.37;;
42194;SDS011;27863;49.440;11.102;2023-11-18T08:33:11;11.03;;;9.87;;
42194;SDS011;27863;49.440;11.102;2023-11-18T08:36:12;9.93;;;8.93;;
42194;SDS011;27863;49.440;11.102;2023-11-18T08:39:12;10.47;;;7.63;;
42194;SDS011;27863;49.440;11.102;2023-11-18T08:42:16;8.90;;;7.67;;
42194;SDS011;27863;49.440;11.102;2023-11-18T08:45:18;9.57;;;8.50;;
42194;SDS011;27863;49.440;11.102;2023-11-18T08:48:21;9.53;;;8.53;;
42194;SDS011;27863;49.440;11.102;2023-11-18T08:51:26;9.53;;;8.33;;
42194;SDS011;27863;49.440;11.102;2023-11-18T08:54:26;14.00;;;9.40;;
42194;SDS011;27863;49.440;11.102;2023-11-18T08:57:36;8.10;;;7.17;;
42194;SDS011;27863;49.440;11.102;2023-11-18T09:00:56;8.47;;;7.60;;
42194;SDS011;27863;49.440;11.102;2023-11-18T09:04:13;8.97;;;7.87;;
42194;SDS011;27863;49.440;11.102;2023-11-18T09:07:15;8.47;;;7.67;;
42194;SDS011;27863;49.440;11.102;2023-11-18T09:10:16;11.30;;;8.27;;
42194;SDS011;27863;49.440;11.102;2023-11-18T09:13:17;9.57;;;8.67;;
42194;SDS011;27863;49.440;11.102;2023-11-18T09:16:19;9.40;;;8.40;;
42194;SDS011;27863;49.440;11.102;2023-11-18T09:19:22;8.33;;;7.50;;
42194;SDS011;27863;49.440;11.102;2023-11-18T09:22:23;9.47;;;8.50;;
42194;SDS011;27863;49.440;11.102;2023-11-18T09:25:24;13.10;;;9.50;;
42194;SDS011;27863;49.440;11.102;2023-11-18T09:28:24;8.93;;;8.13;;
42194;SDS011;27863;49.440;11.102;2023-11-18T09:31:29;9.33;;;7.43;;
42194;SDS011;27863;49.440;11.102;2023-11-18T09:34:32;8.80;;;8.00;;
42194;SDS011;27863;49.440;11.102;2023-11-18T09:37:33;9.03;;;8.17;;
42194;SDS011;27863;49.440;11.102;2023-11-18T09:40:36;10.60;;;9.07;;
42194;SDS011;27863;49.440;11.102;2023-11-18T09:43:43;9.33;;;8.37;;
42194;SDS011;27863;49.440;11.102;2023-11-18T09:46:47;10.33;;;9.17;;
42194;SDS011;27863;49.440;11.102;2023-11-18T09:49:56;9.33;;;8.10;;
42194;SDS011;27863;49.440;11.102;2023-11-18T09:52:58;9.23;;;8.27;;
42194;SDS011;27863;49.440;11.102;2023-11-18T10:00:01;9.87;;;8.93;;
42194;SDS011;27863;49.440;11.102;2023-11-18T10:03:26;8.90;;;8.00;;
42194;SDS011;27863;49.440;11.102;2023-11-18T10:06:27;8.03;;;7.30;;
42194;SDS011;27863;49.440;11.102;2023-11-18T10:09:29;7.90;;;7.20;;
42194;SDS011;27863;49.440;11.102;2023-11-18T10:12:41;8.90;;;8.10;;
42194;SDS011;27863;49.440;11.102;2023-11-18T10:15:45;7.57;;;6.87;;
42194;SDS011;27863;49.440;11.102;2023-11-18T10:18:48;10.20;;;9.20;;
42194;SDS011;27863;49.440;11.102;2023-11-18T10:21:49;9.43;;;8.63;;
42194;SDS011;27863;49.440;11.102;2023-11-18T10:24:49;9.93;;;8.37;;
42194;SDS011;27863;49.440;11.102;2023-11-18T10:27:54;8.37;;;7.63;;
42194;SDS011;27863;49.440;11.102;2023-11-18T10:30:58;9.27;;;8.37;;
42194;SDS011;27863;49.440;11.102;2023-11-18T10:34:03;8.60;;;7.80;;
42194;SDS011;27863;49.440;11.102;2023-11-18T10:37:04;9.33;;;8.43;;
42194;SDS011;27863;49.440;11.102;2023-11-18T10:40:06;9.70;;;8.80;;
42194;SDS011;27863;49.440;11.102;2023-11-18T10:43:08;10.40;;;9.30;;
42194;SDS011;27863;49.440;11.102;2023-11-18T10:46:10;9.70;;;8.80;;
42194;SDS011;27863;49.440;11.102;2023-11-18T10:49:15;8.60;;;7.80;;
42194;SDS011;27863;49.440;11.102;2023-11-18T10:52:17;9.70;;;8.80;;
42194;SDS011;27863;49.440;11.102;2023-11-18T10:55:20;8.90;;;8.20;;
42194;SDS011;27863;49.440;11.102;2023-11-18T10:58:22;10.57;;;9.47;;
42194;SDS011;27863;49.440;11.102;2023-11-18T11:01:26;9.97;;;9.07;;
42194;SDS011;27863;49.440;11.102;2023-11-18T11:04:42;9.33;;;8.53;;
42194;SDS011;27863;49.440;11.102;2023-11-18T11:07:43;9.63;;;8.83;;
42194;SDS011;27863;49.440;11.102;2023-11-18T11:10:44;9.77;;;8.87;;
42194;SDS011;27863;49.440;11.102;2023-11-18T11:13:45;9.17;;;8.40;;
42194;SDS011;27863;49.440;11.102;2023-11-18T11:17:05;9.87;;;8.97;;
42194;SDS011;27863;49.440;11.102;2023-11-18T11:20:16;8.73;;;7.93;;
42194;SDS011;27863;49.440;11.102;2023-11-18T11:23:27;9.77;;;8.90;;
42194;SDS011;27863;49.440;11.102;2023-11-18T11:26:50;10.23;;;9.27;;
42194;SDS011;27863;49.440;11.102;2023-11-18T11:30:23;9.37;;;8.50;;
42194;SDS011;27863;49.440;11.102;2023-11-18T11:33:38;10.60;;;9.70;;
42194;SDS011;27863;49.440;11.102;2023-11-18T11:36:46;9.67;;;8.77;;
42194;SDS011;27863;49.440;11.102;2023-11-18T11:39:50;9.37;;;8.47;;
42194;SDS011;27863;49.440;11.102;2023-11-18T11:42:53;9.80;;;8.77;;
42194;SDS011;27863;49.440;11.102;2023-11-18T11:45:57;8.40;;;7.60;;
42194;SDS011;27863;49.440;11.102;2023-11-18T11:48:59;8.70;;;7.90;;
42194;SDS011;27863;49.440;11.102;2023-11-18T11:55:18;8.17;;;7.37;;
42194;SDS011;27863;49.440;11.102;2023-11-18T11:58:30;6.63;;;6.13;;
42194;SDS011;27863;49.440;11.102;2023-11-18T12:01:37;7.53;;;6.87;;
42194;SDS011;27863;49.440;11.102;2023-11-18T12:04:38;9.37;;;8.33;;
42194;SDS011;27863;49.440;11.102;2023-11-18T12:07:42;8.20;;;7.37;;
42194;SDS011;27863;49.440;11.102;2023-11-18T12:10:50;9.03;;;7.67;;
42194;SDS011;27863;49.440;11.102;2023-11-18T12:14:05;8.43;;;7.73;;
42194;SDS011;27863;49.440;11.102;2023-11-18T12:17:12;8.93;;;8.13;;
42194;SDS011;27863;49.440;11.102;2023-11-18T12:24:16;7.40;;;6.70;;
42194;SDS011;27863;49.440;11.102;2023-11-18T12:28:04;6.87;;;6.27;;
42194;SDS011;27863;49.440;11.102;2023-11-18T12:30:40;7.00;;;6.40;;
42194;SDS011;27863;49.440;11.102;2023-11-18T12:46:53;6.33;;;5.77;;
42194;SDS011;27863;49.440;11.102;2023-11-18T12:49:57;5.10;;;4.70;;
42194;SDS011;27863;49.440;11.102;2023-11-18T12:53:00;5.33;;;4.83;;
42194;SDS011;27863;49.440;11.102;2023-11-18T12:56:01;5.70;;;5.20;;
42194;SDS011;27863;49.440;11.102;2023-11-18T12:59:01;7.50;;;5.50;;
42194;SDS011;27863;49.440;11.102;2023-11-18T13:02:07;6.70;;;5.30;;
42194;SDS011;27863;49.440;11.102;2023-11-18T13:05:18;6.00;;;5.40;;
42194;SDS011;27863;49.440;11.102;2023-11-18T13:08:18;5.73;;;5.23;;
42194;SDS011;27863;49.440;11.102;2023-11-18T13:11:22;4.70;;;4.30;;
42194;SDS011;27863;49.440;11.102;2023-11-18T13:14:25;5.83;;;5.23;;
42194;SDS011;27863;49.440;11.102;2023-11-18T13:17:26;5.13;;;4.57;;
42194;SDS011;27863;49.440;11.102;2023-11-18T13:20:28;2.57;;;2.37;;
42194;SDS011;27863;49.440;11.102;2023-11-18T13:23:29;3.43;;;3.13;;
42194;SDS011;27863;49.440;11.102;2023-11-18T13:26:30;3.17;;;2.87;;
42194;SDS011;27863;49.440;11.102;2023-11-18T13:29:34;3.67;;;3.10;;
42194;SDS011;27863;49.440;11.102;2023-11-18T13:32:35;4.10;;;3.57;;
42194;SDS011;27863;49.440;11.102;2023-11-18T13:35:36;4.13;;;3.10;;
42194;SDS011;27863;49.440;11.102;2023-11-18T13:38:37;3.97;;;3.67;;
42194;SDS011;27863;49.440;11.102;2023-11-18T13:41:38;2.93;;;2.67;;
42194;SDS011;27863;49.440;11.102;2023-11-18T13:44:41;5.03;;;3.17;;
42194;SDS011;27863;49.440;11.102;2023-11-18T13:47:49;3.57;;;2.97;;
42194;SDS011;27863;49.440;11.102;2023-11-18T13:50:52;3.50;;;3.07;;
42194;SDS011;27863;49.440;11.102;2023-11-18T13:53:56;6.77;;;3.90;;
42194;SDS011;27863;49.440;11.102;2023-11-18T13:56:58;4.33;;;3.20;;
42194;SDS011;27863;49.440;11.102;2023-11-18T13:59:59;3.47;;;2.97;;
42194;SDS011;27863;49.440;11.102;2023-11-18T14:02:59;2.77;;;2.57;;
42194;SDS011;27863;49.440;11.102;2023-11-18T14:06:00;2.90;;;2.70;;
42194;SDS011;27863;49.440;11.102;2023-11-18T14:09:02;3.10;;;2.73;;
42194;SDS011;27863;49.440;11.102;2023-11-18T14:12:04;3.73;;;3.00;;
42194;SDS011;27863;49.440;11.102;2023-11-18T14:15:06;3.03;;;2.73;;
42194;SDS011;27863;49.440;11.102;2023-11-18T14:18:10;2.90;;;2.70;;
42194;SDS011;27863;49.440;11.102;2023-11-18T14:21:11;2.90;;;2.60;;
42194;SDS011;27863;49.440;11.102;2023-11-18T14:24:14;3.03;;;2.50;;
42194;SDS011;27863;49.440;11.102;2023-11-18T14:27:15;2.50;;;2.30;;
42194;SDS011;27863;49.440;11.102;2023-11-18T14:30:15;3.33;;;2.93;;
42194;SDS011;27863;49.440;11.102;2023-11-18T14:33:16;2.43;;;2.30;;
42194;SDS011;27863;49.440;11.102;2023-11-18T14:36:21;3.07;;;2.77;;
42194;SDS011;27863;49.440;11.102;2023-11-18T14:39:21;7.43;;;2.90;;
42194;SDS011;27863;49.440;11.102;2023-11-18T14:42:22;4.73;;;2.93;;
42194;SDS011;27863;49.440;11.102;2023-11-18T14:45:23;3.23;;;2.90;;
42194;SDS011;27863;49.440;11.102;2023-11-18T14:48:27;2.93;;;2.73;;
42194;SDS011;27863;49.440;11.102;2023-11-18T14:51:29;3.17;;;2.87;;
42194;SDS011;27863;49.440;11.102;2023-11-18T14:54:31;2.53;;;2.20;;
42194;SDS011;27863;49.440;11.102;2023-11-18T14:57:37;2.30;;;2.03;;
42194;SDS011;27863;49.440;11.102;2023-11-18T15:00:42;3.27;;;2.97;;
42194;SDS011;27863;49.440;11.102;2023-11-18T15:03:44;2.83;;;2.63;;
42194;SDS011;27863;49.440;11.102;2023-11-18T15:06:48;2.20;;;2.00;;
42194;SDS011;27863;49.440;11.102;2023-11-18T15:09:54;3.97;;;2.17;;
42194;SDS011;27863;49.440;11.102;2023-11-18T15:12:55;2.30;;;2.10;;
42194;SDS011;27863;49.440;11.102;2023-11-18T15:15:58;2.60;;;1.97;;
42194;SDS011;27863;49.440;11.102;2023-11-18T15:18:58;3.60;;;2.50;;
42194;SDS011;27863;49.440;11.102;2023-11-18T15:21:59;2.67;;;2.27;;
42194;SDS011;27863;49.440;11.102;2023-11-18T15:25:00;2.60;;;2.40;;
42194;SDS011;27863;49.440;11.102;2023-11-18T15:28:01;3.90;;;2.53;;
42194;SDS011;27863;49.440;11.102;2023-11-18T15:31:03;3.03;;;2.73;;
42194;SDS011;27863;49.440;11.102;2023-11-18T15:34:04;2.80;;;2.60;;
42194;SDS011;27863;49.440;11.102;2023-11-18T15:37:06;2.50;;;2.20;;
42194;SDS011;27863;49.440;11.102;2023-11-18T15:40:10;2.53;;;2.33;;
42194;SDS011;27863;49.440;11.102;2023-11-18T15:43:13;3.10;;;2.90;;
42194;SDS011;27863;49.440;11.102;2023-11-18T15:46:14;3.63;;;2.40;;
42194;SDS011;27863;49.440;11.102;2023-11-18T15:49:16;4.63;;;2.43;;
42194;SDS011;27863;49.440;11.102;2023-11-18T15:52:17;5.17;;;2.80;;
42194;SDS011;27863;49.440;11.102;2023-11-18T15:55:17;2.97;;;2.50;;
42194;SDS011;27863;49.440;11.102;2023-11-18T15:58:20;2.67;;;2.47;;
42194;SDS011;27863;49.440;11.102;2023-11-18T16:01:22;8.33;;;7.63;;
42194;SDS011;27863;49.440;11.102;2023-11-18T16:04:24;3.57;;;3.27;;
42194;SDS011;27863;49.440;11.102;2023-11-18T16:07:24;3.13;;;2.83;;
42194;SDS011;27863;49.440;11.102;2023-11-18T16:10:26;3.93;;;2.53;;
42194;SDS011;27863;49.440;11.102;2023-11-18T16:13:27;2.83;;;2.50;;
42194;SDS011;27863;49.440;11.102;2023-11-18T16:16:28;2.77;;;2.57;;
42194;SDS011;27863;49.440;11.102;2023-11-18T16:19:30;3.20;;;2.90;;
42194;SDS011;27863;49.440;11.102;2023-11-18T16:22:32;2.97;;;2.53;;
42194;SDS011;27863;49.440;11.102;2023-11-18T16:25:33;8.57;;;3.07;;
42194;SDS011;27863;49.440;11.102;2023-11-18T16:28:35;9.53;;;3.37;;
42194;SDS011;27863;49.440;11.102;2023-11-18T16:31:36;4.37;;;3.97;;
42194;SDS011;27863;49.440;11.102;2023-11-18T16:34:37;3.43;;;3.17;;
42194;SDS011;27863;49.440;11.102;2023-11-18T16:37:38;3.13;;;2.77;;
42194;SDS011;27863;49.440;11.102;2023-11-18T16:40:39;3.40;;;2.87;;
42194;SDS011;27863;49.440;11.102;2023-11-18T16:43:40;4.30;;;3.30;;
42194;SDS011;27863;49.440;11.102;2023-11-18T16:46:40;3.50;;;3.20;;
42194;SDS011;27863;49.440;11.102;2023-11-18T16:49:45;5.60;;;5.10;;
42194;SDS011;27863;49.440;11.102;2023-11-18T16:52:46;4.87;;;3.83;;
42194;SDS011;27863;49.440;11.102;2023-11-18T16:55:50;4.17;;;3.83;;
42194;SDS011;27863;49.440;11.102;2023-11-18T16:58:51;3.00;;;2.80;;
42194;SDS011;27863;49.440;11.102;2023-11-18T17:01:52;2.97;;;2.77;;
42194;SDS011;27863;49.440;11.102;2023-11-18T17:04:52;4.63;;;2.73;;
42194;SDS011;27863;49.440;11.102;2023-11-18T17:07:53;3.53;;;3.00;;
42194;SDS011;27863;49.440;11.102;2023-11-18T17:10:54;3.03;;;2.83;;
42194;SDS011;27863;49.440;11.102;2023-11-18T17:13:54;6.10;;;3.50;;
42194;SDS011;27863;49.440;11.102;2023-11-18T17:16:55;3.53;;;3.23;;
42194;SDS011;27863;49.440;11.102;2023-11-18T17:19:57;4.07;;;3.67;;
42194;SDS011;27863;49.440;11.102;2023-11-18T17:22:59;3.90;;;3.60;;
42194;SDS011;27863;49.440;11.102;2023-11-18T17:25:59;3.40;;;3.10;;
42194;SDS011;27863;49.440;11.102;2023-11-18T17:29:00;5.17;;;4.33;;
42194;SDS011;27863;49.440;11.102;2023-11-18T17:32:00;15.50;;;14.00;;
42194;SDS011;27863;49.440;11.102;2023-11-18T17:35:03;5.70;;;5.10;;
42194;SDS011;27863;49.440;11.102;2023-11-18T17:38:05;3.93;;;3.63;;
42194;SDS011;27863;49.440;11.102;2023-11-18T17:41:05;6.27;;;4.07;;
42194;SDS011;27863;49.440;11.102;2023-11-18T17:44:09;3.77;;;3.27;;
42194;SDS011;27863;49.440;11.102;2023-11-18T17:47:10;4.03;;;3.60;;
42194;SDS011;27863;49.440;11.102;2023-11-18T17:50:12;4.07;;;3.70;;
42194;SDS011;27863;49.440;11.102;2023-11-18T17:53:17;3.70;;;3.40;;
42194;SDS011;27863;49.440;11.102;2023-11-18T17:56:19;7.70;;;3.77;;
42194;SDS011;27863;49.440;11.102;2023-11-18T17:59:19;4.03;;;3.73;;
42194;SDS011;27863;49.440;11.102;2023-11-18T18:02:19;4.33;;;3.93;;
42194;SDS011;27863;49.440;11.102;2023-11-18T18:05:20;5.10;;;3.33;;
42194;SDS011;27863;49.440;11.102;2023-11-18T18:08:23;6.17;;;5.57;;
42194;SDS011;27863;49.440;11.102;2023-11-18T18:11:23;7.07;;;5.73;;
42194;SDS011;27863;49.440;11.102;2023-11-18T18:14:25;5.67;;;3.50;;
42194;SDS011;27863;49.440;11.102;2023-11-18T18:17:26;4.07;;;3.73;;
42194;SDS011;27863;49.440;11.102;2023-11-18T18:20:26;4.47;;;4.07;;
42194;SDS011;27863;49.440;11.102;2023-11-18T18:23:27;3.57;;;3.27;;
42194;SDS011;27863;49.440;11.102;2023-11-18T18:26:29;4.67;;;4.27;;